createdAt,value
2019-06-20T00:00:29.699Z,20.20
2019-06-20T00:02:58.732Z,20.20
2019-06-20T00:05:27.944Z,20.20
2019-06-20T00:07:57.045Z,20.20
2019-06-20T00:10:26.095Z,20.00
2019-06-20T00:13:00.351Z,20.10
2019-06-20T00:15:25.980Z,20.00
2019-06-20T00:17:54.934Z,20.10
2019-06-20T00:20:24.331Z,20.10
2019-06-20T00:22:53.271Z,20.10
2019-06-20T00:25:23.078Z,20.10
2019-06-20T00:27:52.033Z,20.10
2019-06-20T00:30:21.144Z,20.20
2019-06-20T00:32:50.094Z,20.20
2019-06-20T00:35:19.224Z,20.40
2019-06-20T00:37:48.289Z,20.60
2019-06-20T00:40:17.458Z,20.50
2019-06-20T00:42:46.809Z,20.30
2019-06-20T00:45:17.791Z,20.20
2019-06-20T00:47:46.845Z,20.10
2019-06-20T00:50:16.069Z,19.90
2019-06-20T00:52:45.109Z,19.90
2019-06-20T00:55:14.444Z,19.80
2019-06-20T00:57:43.392Z,19.80
2019-06-20T01:00:14.233Z,19.70
2019-06-20T01:02:43.191Z,19.60
2019-06-20T01:05:13.735Z,19.40
2019-06-20T01:07:42.708Z,19.40
2019-06-20T01:10:12.026Z,19.50
2019-06-20T01:12:41.065Z,19.40
2019-06-20T01:15:10.416Z,19.40
2019-06-20T01:17:39.660Z,19.40
2019-06-20T01:20:09.311Z,19.40
2019-06-20T01:22:38.376Z,19.30
2019-06-20T01:25:07.827Z,19.40
2019-06-20T01:27:37.263Z,19.60
2019-06-20T01:30:07.111Z,19.80
2019-06-20T01:32:36.143Z,19.90
2019-06-20T01:35:05.849Z,19.90
2019-06-20T01:37:35.084Z,19.90
2019-06-20T01:40:04.554Z,19.90
2019-06-20T01:42:33.540Z,19.90
2019-06-20T01:45:02.613Z,19.90
2019-06-20T01:47:31.664Z,19.90
2019-06-20T01:50:00.700Z,20.00
2019-06-20T01:52:29.940Z,20.10
2019-06-20T01:54:58.918Z,20.20
2019-06-20T01:57:27.980Z,20.10
2019-06-20T01:59:56.996Z,19.90
2019-06-20T02:02:26.119Z,19.80
2019-06-20T02:04:55.097Z,19.60
2019-06-20T02:07:27.984Z,19.40
2019-06-20T02:09:54.796Z,19.30
2019-06-20T02:12:23.813Z,19.10
2019-06-20T02:14:53.034Z,19.10
2019-06-20T02:17:22.077Z,18.90
2019-06-20T02:19:51.168Z,18.80
2019-06-20T02:22:20.309Z,18.70
2019-06-20T02:24:49.334Z,18.60
2019-06-20T02:27:18.639Z,18.60
2019-06-20T02:29:47.907Z,18.60
2019-06-20T02:32:17.078Z,18.60
2019-06-20T02:34:46.558Z,18.50
2019-06-20T02:37:15.533Z,18.30
2019-06-20T02:39:44.565Z,18.20
2019-06-20T02:42:13.780Z,18.10
2019-06-20T02:44:42.908Z,17.90
2019-06-20T02:47:11.986Z,17.90
2019-06-20T02:49:41.244Z,17.90
2019-06-20T02:52:10.321Z,17.80
2019-06-20T02:54:39.566Z,17.90
2019-06-20T02:57:08.621Z,17.90
2019-06-20T02:59:37.599Z,18.00
2019-06-20T03:02:07.108Z,17.90
2019-06-20T03:04:36.062Z,17.90
2019-06-20T03:07:05.108Z,17.80
2019-06-20T03:09:34.053Z,17.70
2019-06-20T03:12:03.478Z,17.60
2019-06-20T03:14:44.914Z,17.60
2019-06-20T03:17:03.368Z,17.50
2019-06-20T03:19:32.340Z,17.50
2019-06-20T03:22:01.354Z,17.50
2019-06-20T03:24:30.533Z,17.50
2019-06-20T03:26:59.633Z,17.60
2019-06-20T03:29:28.960Z,17.60
2019-06-20T03:31:57.997Z,17.70
2019-06-20T03:34:26.964Z,17.80
2019-06-20T03:36:56.176Z,17.70
2019-06-20T03:39:25.167Z,17.70
2019-06-20T03:41:54.224Z,17.70
2019-06-20T03:44:23.297Z,17.60
2019-06-20T03:46:52.341Z,17.60
2019-06-20T03:49:21.641Z,17.60
2019-06-20T03:51:51.771Z,17.70
2019-06-20T03:54:20.980Z,17.70
2019-06-20T03:56:50.014Z,17.70
2019-06-20T03:59:19.418Z,17.70
2019-06-20T04:01:49.285Z,17.80
2019-06-20T04:04:18.363Z,17.80
2019-06-20T04:06:47.651Z,17.80
2019-06-20T04:09:16.984Z,17.90
2019-06-20T04:11:46.090Z,17.90
2019-06-20T04:14:17.185Z,17.90
2019-06-20T04:16:46.200Z,18.00
2019-06-20T04:19:15.193Z,18.00
2019-06-20T04:21:44.313Z,18.10
2019-06-20T04:24:13.288Z,18.20
2019-06-20T04:26:42.324Z,18.30
2019-06-20T04:29:11.364Z,18.30
2019-06-20T04:31:40.412Z,18.50
2019-06-20T04:34:09.473Z,18.70
2019-06-20T04:36:38.523Z,19.40
2019-06-20T04:39:18.794Z,20.20
2019-06-20T04:41:38.455Z,20.90
2019-06-20T04:44:07.548Z,20.80
2019-06-20T04:46:42.581Z,20.70
2019-06-20T04:49:11.628Z,20.60
2019-06-20T04:51:40.648Z,20.60
2019-06-20T04:54:11.733Z,20.70
2019-06-20T04:56:40.737Z,20.70
2019-06-20T04:59:09.968Z,20.90
2019-06-20T05:01:39.007Z,21.10
2019-06-20T05:04:08.320Z,21.40
2019-06-20T05:06:37.524Z,21.70
2019-06-20T05:09:07.780Z,21.90
2019-06-20T05:11:36.967Z,21.90
2019-06-20T05:14:06.008Z,21.80
2019-06-20T05:16:35.074Z,21.80
2019-06-20T05:19:04.126Z,21.80
2019-06-20T05:21:33.067Z,21.80
2019-06-20T05:24:02.041Z,21.90
2019-06-20T05:26:31.084Z,21.90
2019-06-20T05:29:00.065Z,22.00
2019-06-20T05:31:29.008Z,22.00
2019-06-20T05:33:58.521Z,22.00
2019-06-20T05:36:27.524Z,22.10
2019-06-20T05:38:56.572Z,22.30
2019-06-20T05:41:25.575Z,22.40
2019-06-20T05:43:54.620Z,22.50
2019-06-20T05:46:24.028Z,22.60
2019-06-20T05:48:52.993Z,22.80
2019-06-20T05:51:21.973Z,23.10
2019-06-20T05:53:51.194Z,23.40
2019-06-20T05:56:20.172Z,23.80
2019-06-20T05:58:49.188Z,24.00
2019-06-20T06:01:19.149Z,24.00
2019-06-20T06:03:48.150Z,23.90
2019-06-20T06:06:17.272Z,23.80
2019-06-20T06:08:47.089Z,23.60
2019-06-20T06:11:16.698Z,23.40
2019-06-20T06:14:38.291Z,23.20
2019-06-20T06:17:07.587Z,23.00
2019-06-20T06:19:36.855Z,22.70
2019-06-20T06:22:06.225Z,22.60
2019-06-20T06:24:35.209Z,22.60
2019-06-20T06:27:04.667Z,22.80
2019-06-20T06:29:33.908Z,23.00
2019-06-20T06:32:03.316Z,23.20
2019-06-20T06:34:32.419Z,23.20
2019-06-20T06:37:01.483Z,23.30
2019-06-20T06:39:30.591Z,23.30
2019-06-20T06:41:59.623Z,23.10
2019-06-20T06:44:31.614Z,22.80
2019-06-20T06:47:00.485Z,22.60
2019-06-20T06:49:29.800Z,22.50
2019-06-20T06:51:58.852Z,22.50
2019-06-20T06:54:27.902Z,22.40
2019-06-20T06:56:56.992Z,22.50
2019-06-20T06:59:26.022Z,22.50
2019-06-20T07:01:55.007Z,22.60
2019-06-20T07:04:24.052Z,22.70
2019-06-20T07:06:53.116Z,22.80
2019-06-20T07:09:22.060Z,23.10
2019-06-20T07:11:51.126Z,23.50
2019-06-20T07:14:20.563Z,23.90
2019-06-20T07:16:59.735Z,24.40
2019-06-20T07:19:20.408Z,24.70
2019-06-20T07:21:49.477Z,24.80
2019-06-20T07:24:18.731Z,24.60
2019-06-20T07:26:47.780Z,24.20
2019-06-20T07:29:16.891Z,23.80
2019-06-20T07:31:46.157Z,23.30
2019-06-20T07:34:15.376Z,22.90
2019-06-20T07:36:44.413Z,22.60
2019-06-20T07:39:13.459Z,22.60
2019-06-20T07:41:42.840Z,22.70
2019-06-20T07:44:11.850Z,23.00
2019-06-20T07:46:40.915Z,23.20
2019-06-20T07:49:10.193Z,23.40
2019-06-20T07:51:39.503Z,23.80
2019-06-20T07:54:08.600Z,24.50
2019-06-20T07:56:37.930Z,25.00
2019-06-20T07:59:07.045Z,25.30
2019-06-20T08:01:36.000Z,25.50
2019-06-20T08:04:05.596Z,25.30
2019-06-20T08:06:34.918Z,25.00
2019-06-20T08:09:05.016Z,24.70
2019-06-20T08:11:34.102Z,24.60
2019-06-20T08:14:03.071Z,24.80
2019-06-20T08:16:32.141Z,25.30
2019-06-20T08:19:01.201Z,26.70
2019-06-20T08:21:30.231Z,27.30
2019-06-20T08:23:59.203Z,26.90
2019-06-20T08:26:28.254Z,26.40
2019-06-20T08:29:10.202Z,26.20
2019-06-20T08:31:28.120Z,25.90
2019-06-20T08:33:57.692Z,26.10
2019-06-20T08:36:27.986Z,26.50
2019-06-20T08:38:58.581Z,26.80
2019-06-20T08:41:27.880Z,26.70
2019-06-20T08:43:58.451Z,26.60
2019-06-20T08:46:27.757Z,26.40
2019-06-20T08:48:58.249Z,26.20
2019-06-20T08:51:27.563Z,26.00
2019-06-20T08:53:57.539Z,25.80
2019-06-20T08:56:26.795Z,25.90
2019-06-20T08:58:57.341Z,26.10
2019-06-20T09:01:26.933Z,26.10
2019-06-20T09:03:57.001Z,26.00
2019-06-20T09:06:26.817Z,26.00
2019-06-20T09:08:56.720Z,26.00
2019-06-20T09:11:26.522Z,26.20
2019-06-20T09:13:57.022Z,26.60
2019-06-20T09:16:26.279Z,27.10
2019-06-20T09:18:56.614Z,27.40
2019-06-20T09:21:25.723Z,27.10
2019-06-20T09:23:55.695Z,27.60
2019-06-20T09:26:24.960Z,29.90
2019-06-20T09:28:55.572Z,30.30
2019-06-20T09:31:24.642Z,31.70
2019-06-20T09:33:53.857Z,34.20
2019-06-20T09:36:22.780Z,35.40
2019-06-20T09:38:52.480Z,35.80
2019-06-20T09:41:22.628Z,35.80
2019-06-20T09:43:52.733Z,34.30
2019-06-20T09:46:21.869Z,33.30
2019-06-20T09:48:52.428Z,32.40
2019-06-20T09:51:21.658Z,31.90
2019-06-20T09:53:51.869Z,31.30
2019-06-20T09:56:21.161Z,32.50
2019-06-20T09:58:51.132Z,34.70
2019-06-20T10:01:20.382Z,36.00
2019-06-20T10:03:50.509Z,36.30
2019-06-20T10:06:20.000Z,36.80
2019-06-20T10:08:50.072Z,36.50
2019-06-20T10:11:19.372Z,35.90
2019-06-20T10:13:48.351Z,36.80
2019-06-20T10:16:17.551Z,37.10
2019-06-20T10:18:48.164Z,37.60
2019-06-20T10:21:17.413Z,37.20
2019-06-20T10:23:47.683Z,36.70
2019-06-20T10:26:16.779Z,35.50
2019-06-20T10:28:46.406Z,34.00
2019-06-20T10:31:16.548Z,32.90
2019-06-20T10:33:46.826Z,32.20
2019-06-20T10:36:16.218Z,31.80
2019-06-20T10:38:46.434Z,31.10
2019-06-20T10:41:15.879Z,30.70
2019-06-20T10:43:45.808Z,30.30
2019-06-20T10:46:15.937Z,30.30
2019-06-20T10:48:45.971Z,30.40
2019-06-20T10:51:32.922Z,30.50
2019-06-20T10:54:02.178Z,30.60
2019-06-20T10:56:31.518Z,30.60
2019-06-20T10:59:00.908Z,30.80
2019-06-20T11:01:29.936Z,31.00
2019-06-20T11:03:59.188Z,30.50
2019-06-20T11:06:28.620Z,30.10
2019-06-20T11:08:57.688Z,29.50
2019-06-20T11:11:27.033Z,29.30
2019-06-20T11:13:56.134Z,29.80
2019-06-20T11:16:25.093Z,30.40
2019-06-20T11:18:54.060Z,30.60
2019-06-20T11:21:23.094Z,31.10
2019-06-20T11:23:52.105Z,31.40
2019-06-20T11:26:21.120Z,31.60
2019-06-20T11:28:50.084Z,31.40
2019-06-20T11:31:19.641Z,31.40
2019-06-20T11:33:48.567Z,31.40
2019-06-20T11:36:17.566Z,31.20
2019-06-20T11:41:42.097Z,30.10
2019-06-20T11:44:11.188Z,29.90
2019-06-20T11:46:40.710Z,29.90
2019-06-20T11:49:09.982Z,30.00
2019-06-20T11:51:39.864Z,29.90
2019-06-20T11:54:08.921Z,29.80
2019-06-20T11:56:37.976Z,29.70
2019-06-20T11:59:07.081Z,29.80
2019-06-20T12:01:36.145Z,30.40
2019-06-20T12:04:05.241Z,30.80
2019-06-20T12:06:34.205Z,30.90
2019-06-20T12:09:03.214Z,30.80
2019-06-20T12:11:32.190Z,30.30
2019-06-20T12:14:01.141Z,29.70
2019-06-20T12:16:30.103Z,29.60
2019-06-20T12:18:59.073Z,29.90
2019-06-20T12:21:28.301Z,30.30
2019-06-20T12:23:57.652Z,30.30
2019-06-20T12:26:27.128Z,30.10
2019-06-20T12:28:56.330Z,30.20
2019-06-20T12:31:25.549Z,30.10
2019-06-20T12:33:54.508Z,30.00
2019-06-20T12:36:23.486Z,29.70
2019-06-20T12:38:52.488Z,29.90
2019-06-20T12:41:21.461Z,30.20
2019-06-20T12:43:50.504Z,30.10
2019-06-20T12:46:19.831Z,30.00
2019-06-20T12:48:49.204Z,30.00
2019-06-20T12:51:18.120Z,29.80
2019-06-20T12:53:47.233Z,29.50
2019-06-20T12:56:16.209Z,29.50
2019-06-20T12:58:46.576Z,29.80
2019-06-20T13:01:15.768Z,29.90
2019-06-20T13:03:46.268Z,30.30
2019-06-20T13:06:15.817Z,30.50
2019-06-20T13:08:45.288Z,30.60
2019-06-20T13:11:14.351Z,30.60
2019-06-20T13:13:44.383Z,30.70
2019-06-20T13:16:13.694Z,30.60
2019-06-20T13:18:43.153Z,30.40
2019-06-20T13:21:13.810Z,30.50
2019-06-20T13:23:43.227Z,30.60
2019-06-20T13:26:12.283Z,30.60
2019-06-20T13:28:59.060Z,30.70
2019-06-20T13:31:12.273Z,30.80
2019-06-20T13:33:42.419Z,30.80
2019-06-20T13:36:11.735Z,30.60
2019-06-20T13:38:41.533Z,30.40
2019-06-20T13:41:11.522Z,30.10
2019-06-20T13:43:40.900Z,29.90
2019-06-20T13:46:10.024Z,29.90
2019-06-20T13:48:40.822Z,29.60
2019-06-20T13:51:10.114Z,29.40
2019-06-20T13:53:41.140Z,29.10
2019-06-20T13:56:10.106Z,28.80
2019-06-20T13:58:40.619Z,28.50
2019-06-20T14:01:09.970Z,28.10
2019-06-20T14:03:41.679Z,27.60
2019-06-20T14:06:09.898Z,26.80
2019-06-20T14:08:39.299Z,26.20
2019-06-20T14:11:08.433Z,25.50
2019-06-20T14:13:37.462Z,24.80
2019-06-20T14:16:06.837Z,24.00
2019-06-20T14:18:35.842Z,23.40
2019-06-20T14:21:04.953Z,22.90
2019-06-20T14:23:33.928Z,22.60
2019-06-20T14:26:02.940Z,22.40
2019-06-20T14:28:31.908Z,22.30
2019-06-20T14:31:01.167Z,22.00
2019-06-20T14:33:31.906Z,21.70
2019-06-20T14:36:01.856Z,21.50
2019-06-20T14:38:30.942Z,21.40
2019-06-20T14:40:59.926Z,21.30
2019-06-20T14:43:29.093Z,21.30
2019-06-20T14:45:58.144Z,21.30
2019-06-20T14:48:27.129Z,21.60
2019-06-20T14:50:56.549Z,22.00
2019-06-20T14:53:25.617Z,22.40
2019-06-20T14:55:54.803Z,23.10
2019-06-20T14:58:23.891Z,23.90
2019-06-20T15:00:54.166Z,24.90
2019-06-20T15:03:23.363Z,25.70
2019-06-20T15:05:54.714Z,26.30
2019-06-20T15:08:23.715Z,26.80
2019-06-20T15:10:53.768Z,27.00
2019-06-20T15:13:23.309Z,26.90
2019-06-20T15:15:53.429Z,26.80
2019-06-20T15:18:22.400Z,26.70
2019-06-20T15:20:51.981Z,26.60
2019-06-20T15:23:22.113Z,26.60
2019-06-20T15:25:52.135Z,26.80
2019-06-20T15:28:21.701Z,27.00
2019-06-20T15:30:50.932Z,27.30
2019-06-20T15:33:20.186Z,27.40
2019-06-20T15:35:51.214Z,27.60
2019-06-20T15:38:20.053Z,27.80
2019-06-20T15:40:49.822Z,27.90
2019-06-20T15:43:19.829Z,27.80
2019-06-20T15:45:50.276Z,27.90
2019-06-20T15:48:19.972Z,27.90
2019-06-20T15:50:48.912Z,27.90
2019-06-20T15:53:18.135Z,27.60
2019-06-20T15:55:47.073Z,27.30
2019-06-20T15:58:16.092Z,27.10
2019-06-20T16:00:45.467Z,27.00
2019-06-20T16:03:14.861Z,26.90
2019-06-20T16:05:44.391Z,26.80
2019-06-20T16:08:13.464Z,26.60
2019-06-20T16:10:43.100Z,26.50
2019-06-20T16:13:12.149Z,26.40
2019-06-20T16:15:41.197Z,26.40
2019-06-20T16:18:10.313Z,26.50
2019-06-20T16:20:39.834Z,26.40
2019-06-20T16:23:08.802Z,26.40
2019-06-20T16:25:37.892Z,26.30
2019-06-20T16:28:07.225Z,26.40
2019-06-20T16:30:36.174Z,26.40
2019-06-20T16:33:05.505Z,26.40
2019-06-20T16:35:34.541Z,26.40
2019-06-20T16:38:04.050Z,26.30
2019-06-20T16:40:41.347Z,26.30
2019-06-20T16:43:10.626Z,26.20
2019-06-20T16:45:39.713Z,26.10
2019-06-20T16:48:09.008Z,26.10
2019-06-20T16:50:38.645Z,26.00
2019-06-20T16:53:07.603Z,25.90
2019-06-20T16:55:36.636Z,25.90
2019-06-20T16:58:05.986Z,25.90
2019-06-20T17:00:35.165Z,26.00
2019-06-20T17:03:04.197Z,25.90
2019-06-20T17:05:33.494Z,25.80
2019-06-20T17:08:02.520Z,25.70
2019-06-20T17:10:31.560Z,25.60
2019-06-20T17:13:00.588Z,25.60
2019-06-20T17:15:29.724Z,25.70
2019-06-20T17:17:58.826Z,25.60
2019-06-20T17:20:28.175Z,25.50
2019-06-20T17:22:57.129Z,25.40
2019-06-20T17:25:26.195Z,25.40
2019-06-20T17:27:55.232Z,25.30
2019-06-20T17:30:24.910Z,25.30
2019-06-20T17:32:53.857Z,25.20
2019-06-20T17:35:23.194Z,25.10
2019-06-20T17:37:52.691Z,25.10
2019-06-20T17:40:23.396Z,25.00
2019-06-20T17:42:52.605Z,24.80
2019-06-20T17:45:22.522Z,24.70
2019-06-20T17:47:52.088Z,24.60
2019-06-20T17:50:21.697Z,24.50
2019-06-20T17:52:50.647Z,24.40
2019-06-20T17:55:20.057Z,24.30
2019-06-20T17:57:49.008Z,24.20
2019-06-20T18:00:20.172Z,24.20
2019-06-20T18:02:49.317Z,24.10
2019-06-20T18:05:18.544Z,24.00
2019-06-20T18:07:48.033Z,24.00
2019-06-20T18:10:19.461Z,24.00
2019-06-20T18:12:48.606Z,24.10
2019-06-20T18:15:18.399Z,24.10
2019-06-20T18:17:47.476Z,24.00
2019-06-20T18:20:16.956Z,24.00
2019-06-20T18:22:46.165Z,24.00
2019-06-20T18:25:15.662Z,24.00
2019-06-20T18:27:44.601Z,24.00
2019-06-20T18:30:14.844Z,24.10
2019-06-20T18:32:43.847Z,24.10
2019-06-20T18:35:13.176Z,24.00
2019-06-20T18:37:42.454Z,24.00
2019-06-20T18:40:12.029Z,24.10
2019-06-20T18:42:41.301Z,24.10
2019-06-20T18:45:11.156Z,24.00
2019-06-20T18:47:40.247Z,23.90
2019-06-20T18:50:09.842Z,23.80
2019-06-20T18:52:51.512Z,23.70
2019-06-20T18:55:09.771Z,23.60
2019-06-20T18:57:38.831Z,23.40
2019-06-20T19:00:08.336Z,23.30
2019-06-20T19:02:37.783Z,23.20
2019-06-20T19:05:07.057Z,23.10
2019-06-20T19:07:36.112Z,23.00
2019-06-20T19:10:05.700Z,22.90
2019-06-20T19:12:34.680Z,22.80
2019-06-20T19:15:03.870Z,22.80
2019-06-20T19:17:32.925Z,22.70
2019-06-20T19:20:01.897Z,22.60
2019-06-20T19:22:31.642Z,22.50
2019-06-20T19:25:03.823Z,22.50
2019-06-20T19:27:45.094Z,22.50
2019-06-20T19:30:01.949Z,22.50
2019-06-20T19:32:30.943Z,22.40
2019-06-20T19:35:02.523Z,22.40
2019-06-20T19:37:31.681Z,22.40
2019-06-20T19:40:00.687Z,22.40
2019-06-20T19:42:30.396Z,22.30
2019-06-20T19:44:59.424Z,22.20
2019-06-20T19:47:28.576Z,22.10
2019-06-20T19:49:57.680Z,22.10
2019-06-20T19:52:26.753Z,22.00
2019-06-20T19:54:55.846Z,22.00
2019-06-20T19:57:25.274Z,22.00
2019-06-20T19:59:55.013Z,22.00
2019-06-20T20:02:24.156Z,21.90
2019-06-20T20:04:55.350Z,21.90
2019-06-20T20:07:24.396Z,21.80
2019-06-20T20:09:53.678Z,21.70
2019-06-20T20:12:22.884Z,21.80
2019-06-20T20:14:51.833Z,21.90
2019-06-20T20:17:20.844Z,21.90
2019-06-20T20:19:49.875Z,21.80
2019-06-20T20:22:18.956Z,21.70
2019-06-20T20:24:48.253Z,21.60
2019-06-20T20:27:18.008Z,21.60
2019-06-20T20:29:47.225Z,21.60
2019-06-20T20:32:16.426Z,21.60
2019-06-20T20:34:45.372Z,21.70
2019-06-20T20:37:14.878Z,21.60
2019-06-20T20:39:43.843Z,21.60
2019-06-20T20:42:13.065Z,21.50
2019-06-20T20:44:42.095Z,21.50
2019-06-20T20:47:11.071Z,21.40
2019-06-20T20:49:40.176Z,21.30
2019-06-20T20:52:09.153Z,21.20
2019-06-20T20:54:38.127Z,21.20
2019-06-20T20:57:07.109Z,21.10
2019-06-20T20:59:36.228Z,21.10
2019-06-20T21:02:05.381Z,21.10
2019-06-20T21:04:34.424Z,21.10
2019-06-20T21:07:03.395Z,21.00
2019-06-20T21:09:32.451Z,21.00
2019-06-20T21:12:01.717Z,21.00
2019-06-20T21:14:30.680Z,20.90
2019-06-20T21:16:59.765Z,20.90
2019-06-20T21:19:28.731Z,20.90
2019-06-20T21:21:57.687Z,20.90
2019-06-20T21:24:26.736Z,20.90
2019-06-20T21:26:55.806Z,21.00
2019-06-20T21:29:24.795Z,21.00
2019-06-20T21:31:53.739Z,21.00
2019-06-20T21:34:22.746Z,20.90
2019-06-20T21:36:51.688Z,20.90
2019-06-20T21:39:20.708Z,21.00
2019-06-20T21:41:49.731Z,20.90
2019-06-20T21:44:18.707Z,20.90
2019-06-20T21:46:48.087Z,20.90
2019-06-20T21:49:17.460Z,20.90
2019-06-20T21:51:46.773Z,20.90
2019-06-20T21:54:15.738Z,20.90
2019-06-20T21:56:44.837Z,20.90
2019-06-20T21:59:13.816Z,20.90
2019-06-20T22:01:43.107Z,20.90
2019-06-20T22:04:12.418Z,21.00
2019-06-20T22:06:41.790Z,21.10
2019-06-20T22:09:11.492Z,21.20
2019-06-20T22:11:40.640Z,21.30
2019-06-20T22:14:09.948Z,21.40
2019-06-20T22:16:39.192Z,21.30
2019-06-20T22:19:08.260Z,21.20
2019-06-20T22:21:37.527Z,21.00
2019-06-20T22:24:06.563Z,20.90
2019-06-20T22:26:35.588Z,20.60
2019-06-20T22:29:05.716Z,20.40
2019-06-20T22:31:34.751Z,20.20
2019-06-20T22:34:04.029Z,19.90
2019-06-20T22:36:40.069Z,19.80
2019-06-20T22:39:04.429Z,19.50
2019-06-20T22:41:33.498Z,19.40
2019-06-20T22:44:02.542Z,19.20
2019-06-20T22:46:31.572Z,19.10
2019-06-20T22:49:00.544Z,19.10
2019-06-20T22:51:29.546Z,18.90
2019-06-20T22:53:58.596Z,18.90
2019-06-20T22:56:27.615Z,18.90
2019-06-20T22:58:56.853Z,18.80
2019-06-20T23:01:25.808Z,18.80
2019-06-20T23:03:54.759Z,18.80
2019-06-20T23:06:23.812Z,18.80
2019-06-20T23:08:52.774Z,18.70
2019-06-20T23:11:21.992Z,18.70
2019-06-20T23:13:50.942Z,18.60
2019-06-20T23:16:19.898Z,18.50
2019-06-20T23:18:48.868Z,18.40
2019-06-20T23:21:17.912Z,18.40
2019-06-20T23:23:46.855Z,18.40
2019-06-20T23:26:15.980Z,18.40
2019-06-20T23:28:47.297Z,18.40
2019-06-20T23:31:16.264Z,18.40
2019-06-20T23:33:45.301Z,18.30
2019-06-20T23:36:14.275Z,18.30
2019-06-20T23:38:43.303Z,18.20
2019-06-20T23:41:12.340Z,18.20
2019-06-20T23:43:41.304Z,18.10
2019-06-20T23:46:10.273Z,18.10
2019-06-20T23:48:39.242Z,17.90
2019-06-20T23:51:09.305Z,17.90
2019-06-20T23:53:38.857Z,17.80
2019-06-20T23:56:08.174Z,17.80
2019-06-20T23:58:37.377Z,17.70
